Santa Isabel, Brazil
Current Conditions -  °F | °C
As of 7:00 PM on Friday 31 Oct 2014 (Local Time) from SBPJ Reporting Station
Thunderstorm Thunderstorm  
Wind Chill: 72°   Ceiling: Unl
Heat Index: 72°   Visibility: 6mi
Dew Point: 70°   Wind: 3mph
Humidity: 94%   Direction: 90°E
Pressure: 29.85"   Gusts: NA
Location:  11.57°S, 50.67°W
Report Text: SBPJ 312200Z 09003KT 9999 VCTS SCT020 FEW040CB 22/21 Q1011 RETS
Loading
Personal Weather Stations






























Interactive Weather Map
Tropical Storm Tracking
New forecast layout! Learn more

10-Day Weather Forecast

Advertisements
Track Severe Weather on mobile